»·PEaware :: N829SM L88-KSBP

N829SM :: L88-KSBP

FLIGHT INFORMATION

Flight Status: Arrived
Operator: Privately registered:
United States
More flights under this callsign
Pilot: Anonymous 23263 (23263)
Aircraft: CESSNA 172 SKYHAWK
(C172)
More flights by this aircraft type
Origin: L88 New Cuyama
United States
Destination: KSBP San Luis Co Regl
United States
More flights between these airports :: More routes between these airports
Route:
File this flight plan on PilotEdge
Remarks:
Altitude:
(Current/Filed)
0ft
Speed:
(Current/Filed)
0kts
Departed: 09-Feb-19 09:50 AM
Arrived: 09-Feb-19 11:03 AM
Distance/Time
Traveled:
50nm/1:13
Distance/Time
To Go:
Arrived

Flight Plot

Page will automatically refresh every two minutes.


Map Options




Map Legend


Flown Route
Filed Route
Departure Airport
Arrival Airport
Navaid (VOR, NDB)
Fix

Horizontal Profiles

Position Reports

Time Latitude Longitude Heading Altitude Ground
Speed
09-Feb-19 09:45 34.942853 -119.690285 204 2155ft 0kts
09-Feb-19 09:45 34.942852 -119.690286 204 2155ft 0kts
09-Feb-19 09:46 34.942852 -119.690286 204 2155ft 0kts
09-Feb-19 09:47 34.942852 -119.690286 204 2155ft 0kts
09-Feb-19 09:48 34.942804 -119.690894 260 2153ft 8kts
09-Feb-19 09:49 34.939674 -119.684845 116 2176ft 47kts
09-Feb-19 09:50 34.937632 -119.680165 311 2195ft 0kts
09-Feb-19 09:51 34.943013 -119.692342 301 2576ft 68kts
09-Feb-19 09:52 34.951577 -119.712890 289 3448ft 70kts
09-Feb-19 09:53 34.957502 -119.735104 292 4312ft 67kts
09-Feb-19 09:54 34.963542 -119.755833 294 5128ft 63kts
09-Feb-19 09:55 34.969410 -119.775193 293 5895ft 59kts
09-Feb-19 09:56 34.975031 -119.793379 293 6616ft 55kts
09-Feb-19 09:57 34.980359 -119.810453 291 7288ft 52kts
09-Feb-19 09:58 34.987616 -119.833640 290 7422ft 92kts
09-Feb-19 09:59 34.997149 -119.863923 290 7418ft 96kts
09-Feb-19 10:00 35.006599 -119.894134 290 7418ft 93kts
09-Feb-19 10:01 35.015650 -119.923181 290 7417ft 89kts
09-Feb-19 10:02 35.024869 -119.952797 291 7131ft 102kts
09-Feb-19 10:03 35.035410 -119.986583 291 6645ft 110kts
09-Feb-19 10:04 35.046317 -120.021678 293 6417ft 106kts
09-Feb-19 10:05 35.057073 -120.056014 288 6404ft 117kts
09-Feb-19 10:06 35.069710 -120.096835 285 6412ft 133kts
09-Feb-19 10:07 35.082782 -120.139021 283 6409ft 132kts
09-Feb-19 10:08 35.088964 -120.159005 283 6409ft 130kts
09-Feb-19 10:09 35.088964 -120.159005 283 6409ft 130kts
09-Feb-19 10:10 35.088964 -120.159005 283 6409ft 130kts
09-Feb-19 10:11 35.088964 -120.159005 283 6409ft 130kts
09-Feb-19 10:12 35.088964 -120.159005 283 6409ft 130kts
09-Feb-19 10:13 35.088964 -120.159005 283 6409ft 130kts
09-Feb-19 10:14 35.088964 -120.159005 283 6409ft 130kts
09-Feb-19 10:15 35.088964 -120.159005 283 6409ft 130kts
09-Feb-19 10:16 35.088964 -120.159005 283 6409ft 130kts
09-Feb-19 10:17 35.088964 -120.159005 283 6409ft 130kts
09-Feb-19 10:18 35.088964 -120.159005 283 6409ft 130kts
09-Feb-19 10:19 35.088964 -120.159005 283 6409ft 130kts
09-Feb-19 10:20 35.088964 -120.159005 283 6409ft 130kts
09-Feb-19 10:21 35.088964 -120.159005 283 6409ft 130kts
09-Feb-19 10:22 35.088964 -120.159005 283 6409ft 130kts
09-Feb-19 10:23 35.088964 -120.159005 283 6409ft 130kts
09-Feb-19 10:24 35.088964 -120.159005 283 6409ft 130kts
09-Feb-19 10:25 35.088964 -120.159005 283 6409ft 130kts
09-Feb-19 10:26 35.088964 -120.159005 283 6409ft 130kts
09-Feb-19 10:27 35.088964 -120.159005 283 6409ft 130kts
09-Feb-19 10:28 35.088964 -120.159005 283 6409ft 130kts
09-Feb-19 10:29 35.088964 -120.159005 283 6409ft 130kts
09-Feb-19 10:30 35.088964 -120.159005 283 6409ft 130kts
09-Feb-19 10:31 35.088964 -120.159005 283 6409ft 130kts
09-Feb-19 10:32 35.088964 -120.159005 283 6409ft 130kts
09-Feb-19 10:33 35.088964 -120.159005 283 6409ft 130kts
09-Feb-19 10:34 35.088964 -120.159005 283 6409ft 130kts
09-Feb-19 10:35 35.088964 -120.159005 283 6409ft 130kts
09-Feb-19 10:36 35.088964 -120.159005 283 6409ft 130kts
09-Feb-19 10:37 35.088964 -120.159005 283 6409ft 130kts
09-Feb-19 10:38 35.088964 -120.159005 283 6409ft 130kts
09-Feb-19 10:39 35.088964 -120.159005 283 6409ft 130kts
09-Feb-19 10:40 35.088964 -120.159005 283 6409ft 130kts
09-Feb-19 10:41 35.099722 -120.193826 282 6407ft 127kts
09-Feb-19 10:42 35.111592 -120.232245 281 6407ft 117kts
09-Feb-19 10:43 35.123201 -120.270002 281 6405ft 120kts
09-Feb-19 10:44 35.135034 -120.308433 281 6405ft 121kts
09-Feb-19 10:45 35.146943 -120.347167 281 6404ft 122kts
09-Feb-19 10:46 35.158928 -120.386202 282 6402ft 123kts
09-Feb-19 10:47 35.171103 -120.425915 282 6401ft 125kts
09-Feb-19 10:48 35.183484 -120.466348 282 6399ft 127kts
09-Feb-19 10:49 35.203951 -120.494362 35 6603ft 121kts
09-Feb-19 10:50 35.199878 -120.462817 123 6823ft 90kts
09-Feb-19 10:51 35.189991 -120.433563 115 7088ft 98kts
09-Feb-19 10:52 35.179699 -120.400774 173 6430ft 103kts
09-Feb-19 10:53 35.172856 -120.427210 272 6397ft 92kts
09-Feb-19 10:54 35.180326 -120.455382 277 6378ft 83kts
09-Feb-19 10:55 35.190507 -120.489513 284 5782ft 118kts
09-Feb-19 10:56 35.201219 -120.524105 284 5044ft 95kts
09-Feb-19 10:57 35.209989 -120.552919 285 4334ft 87kts
09-Feb-19 10:58 35.218536 -120.581065 287 3522ft 96kts
09-Feb-19 10:59 35.228293 -120.613031 290 2519ft 101kts
09-Feb-19 11:00 35.219899 -120.624496 72 952ft 108kts
09-Feb-19 11:01 35.238071 -120.642142 302 216ft 58kts
09-Feb-19 11:02 35.241355 -120.646058 111 216ft 4kts
09-Feb-19 11:03 35.241299 -120.645885 112 216ft 0kts
09-Feb-19 11:04 35.241299 -120.645885 112 216ft 0kts
09-Feb-19 11:05 35.240482 -120.644161 102 216ft 0kts
09-Feb-19 11:06 35.240482 -120.644161 102 216ft 0kts
09-Feb-19 11:07 35.240482 -120.644161 102 216ft 0kts
09-Feb-19 11:08 35.240482 -120.644161 102 216ft 0kts
09-Feb-19 11:09 35.240482 -120.644161 102 216ft 0kts
09-Feb-19 11:10 35.240482 -120.644161 102 216ft 0kts
09-Feb-19 11:11 35.240482 -120.644161 102 216ft 0kts
09-Feb-19 11:12 35.240482 -120.644161 102 216ft 0kts
09-Feb-19 11:13 35.240482 -120.644161 102 216ft 0kts
09-Feb-19 11:14 35.240482 -120.644161 102 216ft 0kts
09-Feb-19 11:15 35.240482 -120.644161 102 216ft 0kts
09-Feb-19 11:16 35.240482 -120.644161 102 216ft 0kts

Navigation Log

Ident Type
Flight plan parsing failed, navigation log unavailable